Time;durP1;ratioP1;P1;durP2;ratioP2;P2;SDS_P1;SDS_P2;PMS_P1;PMS_P2;Temp;Humidity;BMP_temperature;BMP_pressure;BME280_temperature;BME280_humidity;BME280_pressure;Samples;Min_cycle;Max_cycle;Signal;HPM_P1;HPM_P2
2021/12/27 05:01:22;;;;;;;15.35;7.30;;;-2.90;99.90;;;;;;5479665;23;20271;-68
2021/12/27 05:03:49;;;;;;;13.63;9.90;;;-2.80;99.90;;;;;;4924019;29;20321;-69
2021/12/27 05:06:17;;;;;;;17.73;8.40;;;-2.90;99.90;;;;;;4916879;29;20215;-68
2021/12/27 05:08:44;;;;;;;21.83;10.82;;;-2.80;99.90;;;;;;4934003;29;20213;-70
2021/12/27 05:11:11;;;;;;;14.82;10.30;;;-2.80;99.90;;;;;;4934220;29;20236;-68
2021/12/27 05:13:37;;;;;;;20.80;9.77;;;-2.80;99.90;;;;;;4916015;29;20241;-69
2021/12/27 05:16:05;;;;;;;16.40;9.90;;;-2.80;99.90;;;;;;4916666;29;20223;-69
2021/12/27 05:18:33;;;;;;;17.52;10.23;;;-2.80;99.90;;;;;;4924993;29;20238;-69
2021/12/27 05:21:00;;;;;;;11.25;8.90;;;-2.80;99.90;;;;;;4903467;29;20227;-69
2021/12/27 05:23:27;;;;;;;16.90;11.10;;;-2.70;99.90;;;;;;4905036;29;20210;-68
2021/12/27 05:25:53;;;;;;;17.17;10.23;;;-2.70;99.90;;;;;;4915323;29;20210;-69
2021/12/27 05:28:20;;;;;;;19.55;11.98;;;-2.70;99.90;;;;;;4915500;29;20586;-69
2021/12/27 05:30:48;;;;;;;16.10;10.60;;;-2.70;99.90;;;;;;4922060;29;20289;-68
2021/12/27 05:33:15;;;;;;;11.80;8.35;;;-2.70;99.90;;;;;;4933952;29;20329;-68
2021/12/27 05:35:43;;;;;;;11.23;8.60;;;-2.70;99.90;;;;;;4927731;29;20300;-68
2021/12/27 05:38:10;;;;;;;18.17;12.35;;;-2.70;99.90;;;;;;4933237;29;20217;-68
2021/12/27 05:40:37;;;;;;;13.73;8.40;;;-2.70;99.90;;;;;;4918894;29;20309;-68
2021/12/27 05:43:06;;;;;;;20.17;10.77;;;-2.70;99.90;;;;;;4934126;29;20213;-68
2021/12/27 05:45:33;;;;;;;14.10;9.05;;;-2.70;99.90;;;;;;4927278;29;20218;-68
2021/12/27 05:47:59;;;;;;;17.50;8.60;;;-2.70;99.90;;;;;;4919186;29;20738;-68
2021/12/27 05:50:26;;;;;;;14.45;10.13;;;-2.70;99.90;;;;;;4914126;29;20210;-68
2021/12/27 05:52:54;;;;;;;16.58;9.20;;;-2.70;99.90;;;;;;4915413;29;20214;-68
2021/12/27 05:55:22;;;;;;;15.95;9.43;;;-2.70;99.90;;;;;;4914461;29;20207;-68
2021/12/27 05:57:48;;;;;;;14.13;10.10;;;-2.60;99.90;;;;;;4917481;29;20202;-69
2021/12/27 06:00:16;;;;;;;16.10;9.95;;;-2.60;99.90;;;;;;4921750;29;20210;-69
2021/12/27 06:02:43;;;;;;;17.52;9.48;;;-2.60;99.90;;;;;;4917525;29;20230;-69
2021/12/27 06:05:11;;;;;;;12.68;8.40;;;-2.60;99.90;;;;;;4927997;29;20580;-68
2021/12/27 06:07:38;;;;;;;25.55;11.10;;;-2.60;99.90;;;;;;4906826;29;20207;-68
2021/12/27 06:10:07;;;;;;;20.45;11.77;;;-2.60;99.90;;;;;;4914268;29;20326;-69
2021/12/27 06:12:34;;;;;;;22.77;10.40;;;-2.60;99.90;;;;;;4913943;29;20722;-68
2021/12/27 06:15:01;;;;;;;21.38;13.15;;;-2.60;99.90;;;;;;4914481;29;20233;-69
2021/12/27 06:17:30;;;;;;;17.75;11.65;;;-2.60;99.90;;;;;;4911308;29;20214;-68
2021/12/27 06:19:56;;;;;;;18.15;11.65;;;-2.60;99.90;;;;;;4915470;29;20206;-68
2021/12/27 06:22:23;;;;;;;25.80;11.43;;;-2.60;99.90;;;;;;4923656;29;20730;-69
2021/12/27 06:24:50;;;;;;;14.23;8.55;;;-2.70;99.90;;;;;;4914491;29;20282;-67
2021/12/27 06:27:18;;;;;;;14.35;9.00;;;-2.70;99.90;;;;;;4922590;29;20206;-67
2021/12/27 06:29:45;;;;;;;13.85;9.57;;;-2.70;99.90;;;;;;4908330;29;20680;-67
2021/12/27 06:32:13;;;;;;;20.08;12.55;;;-2.70;99.90;;;;;;4902910;29;20731;-68
2021/12/27 06:34:40;;;;;;;18.05;10.88;;;-2.70;99.90;;;;;;4915664;29;20214;-70
2021/12/27 06:37:08;;;;;;;14.25;8.65;;;-2.70;99.90;;;;;;4920373;29;20301;-70
2021/12/27 06:39:34;;;;;;;23.80;12.65;;;-2.70;99.90;;;;;;4927387;29;20202;-66
2021/12/27 06:42:01;;;;;;;16.75;11.63;;;-2.70;99.90;;;;;;4915446;29;20223;-66
2021/12/27 06:44:29;;;;;;;16.50;11.77;;;-2.70;99.90;;;;;;4906574;29;20526;-68
2021/12/27 06:46:59;;;;;;;23.75;11.98;;;-2.70;99.90;;;;;;4903715;29;20635;-68
2021/12/27 06:49:26;;;;;;;17.67;11.85;;;-2.70;99.90;;;;;;4925734;29;20265;-67
2021/12/27 06:51:53;;;;;;;23.10;13.48;;;-2.70;99.90;;;;;;4918496;29;20229;-67
2021/12/27 06:54:20;;;;;;;15.50;9.75;;;-2.70;99.90;;;;;;4926827;29;20577;-69
2021/12/27 06:56:46;;;;;;;26.70;13.77;;;-2.70;99.90;;;;;;4916680;29;20217;-68
2021/12/27 06:59:14;;;;;;;17.95;9.20;;;-2.70;99.90;;;;;;4913919;29;20218;-67
2021/12/27 07:01:42;;;;;;;21.33;12.85;;;-2.70;99.90;;;;;;4908977;29;20663;-68
2021/12/27 07:04:08;;;;;;;26.40;11.95;;;-2.70;99.90;;;;;;4915478;29;20207;-68
2021/12/27 07:06:35;;;;;;;22.75;10.60;;;-2.60;99.90;;;;;;4921203;29;20210;-68
2021/12/27 07:09:04;;;;;;;22.17;11.32;;;-2.70;99.90;;;;;;4922424;29;20578;-70
2021/12/27 07:11:31;;;;;;;19.67;11.50;;;-2.60;99.90;;;;;;4904531;29;20226;-68
2021/12/27 07:13:57;;;;;;;21.10;12.88;;;-2.60;99.90;;;;;;4933070;29;20210;-67
2021/12/27 07:16:25;;;;;;;25.30;12.48;;;-2.60;99.90;;;;;;4922017;29;20214;-70
2021/12/27 07:18:54;;;;;;;21.42;13.18;;;-2.60;99.90;;;;;;4916431;29;20215;-69
2021/12/27 07:21:21;;;;;;;23.65;13.25;;;-2.60;99.90;;;;;;4917397;29;20261;-68
2021/12/27 07:23:48;;;;;;;26.08;14.30;;;-2.50;99.90;;;;;;4916859;29;20586;-66
2021/12/27 07:26:14;;;;;;;18.98;9.93;;;-2.60;99.90;;;;;;4925449;29;20214;-68
2021/12/27 07:28:41;;;;;;;22.13;13.57;;;-2.50;99.90;;;;;;4917744;29;20278;-67
2021/12/27 07:31:09;;;;;;;31.95;14.75;;;-2.50;99.90;;;;;;4917643;29;20767;-67
2021/12/27 07:33:37;;;;;;;23.17;11.70;;;-2.50;99.90;;;;;;4933923;29;20266;-67
2021/12/27 07:36:07;;;;;;;15.25;11.32;;;-2.50;99.90;;;;;;4925351;29;20218;-67
2021/12/27 07:38:34;;;;;;;20.38;12.30;;;-2.60;99.90;;;;;;4917139;29;20293;-67
2021/12/27 07:41:01;;;;;;;20.48;14.15;;;-2.50;99.90;;;;;;4918214;29;20234;-67
2021/12/27 07:43:28;;;;;;;26.25;12.73;;;-2.60;99.90;;;;;;4917874;29;20211;-68
2021/12/27 07:45:54;;;;;;;11.38;8.32;;;-2.60;99.90;;;;;;4917359;29;20214;-68
2021/12/27 07:48:21;;;;;;;21.88;13.55;;;-2.60;99.90;;;;;;4919365;29;20199;-69
2021/12/27 07:50:48;;;;;;;21.42;13.52;;;-2.50;99.90;;;;;;4916605;29;20282;-68
2021/12/27 07:53:16;;;;;;;14.88;9.70;;;-2.50;99.90;;;;;;4913818;29;20230;-72
2021/12/27 07:55:43;;;;;;;13.75;9.85;;;-2.50;99.90;;;;;;4907137;29;20257;-69
2021/12/27 07:58:10;;;;;;;21.75;12.77;;;-2.50;99.90;;;;;;4914613;29;20206;-68
2021/12/27 08:00:37;;;;;;;21.35;12.73;;;-2.50;99.90;;;;;;4912495;29;20656;-67
2021/12/27 08:03:03;;;;;;;18.08;11.98;;;-2.50;99.90;;;;;;4927289;29;20219;-68
2021/12/27 08:05:30;;;;;;;20.55;14.05;;;-2.40;99.90;;;;;;4915499;29;20209;-68
2021/12/27 08:07:57;;;;;;;24.23;10.60;;;-2.50;99.90;;;;;;4913725;29;20207;-68
2021/12/27 08:10:26;;;;;;;19.95;12.43;;;-2.40;99.90;;;;;;4915579;29;20215;-69
2021/12/27 08:12:52;;;;;;;16.15;8.73;;;-2.40;99.90;;;;;;4914827;29;20553;-68
2021/12/27 08:15:19;;;;;;;26.08;13.77;;;-2.40;99.90;;;;;;4915463;29;20218;-67
2021/12/27 08:17:46;;;;;;;22.00;12.70;;;-2.40;99.90;;;;;;4923067;29;20604;-68
2021/12/27 08:20:13;;;;;;;18.77;11.05;;;-2.40;99.90;;;;;;4904742;29;20631;-68
2021/12/27 08:22:39;;;;;;;25.60;12.63;;;-2.40;99.90;;;;;;4916705;29;20213;-68
2021/12/27 08:25:07;;;;;;;20.27;12.65;;;-2.40;99.90;;;;;;4913794;29;20210;-69
2021/12/27 08:27:38;;;;;;;21.90;12.25;;;-2.40;99.90;;;;;;4923127;29;20244;-69
2021/12/27 08:30:06;;;;;;;13.95;10.00;;;-2.30;99.90;;;;;;4933483;29;20221;-68
2021/12/27 08:32:33;;;;;;;20.23;12.30;;;-2.30;99.90;;;;;;4929938;29;20226;-69
2021/12/27 08:35:01;;;;;;;19.00;8.77;;;-2.30;99.90;;;;;;4933108;29;20284;-69
2021/12/27 08:37:28;;;;;;;17.23;8.15;;;-2.30;99.90;;;;;;4921221;29;20309;-70
2021/12/27 08:39:55;;;;;;;19.50;14.10;;;-2.30;99.90;;;;;;4914887;29;20218;-67
2021/12/27 08:42:22;;;;;;;17.50;10.80;;;-2.30;99.90;;;;;;4916393;29;20274;-67
2021/12/27 08:44:50;;;;;;;22.00;13.32;;;-2.30;99.90;;;;;;4915994;29;20229;-67
2021/12/27 08:47:17;;;;;;;18.63;12.60;;;-2.20;99.90;;;;;;4916782;29;20591;-68
2021/12/27 08:49:44;;;;;;;17.88;11.38;;;-2.20;99.90;;;;;;4914743;29;20215;-69
2021/12/27 08:52:11;;;;;;;23.90;11.70;;;-2.10;99.90;;;;;;4914623;29;20241;-68
2021/12/27 08:54:38;;;;;;;30.88;15.55;;;-2.10;99.90;;;;;;4914812;29;20214;-68
2021/12/27 08:57:05;;;;;;;29.63;15.25;;;-2.00;99.90;;;;;;4909405;29;20616;-69
2021/12/27 08:59:32;;;;;;;8.02;5.95;;;-2.00;99.90;;;;;;4896519;29;20259;-68
2021/12/27 09:02:00;;;;;;;27.27;13.85;;;-2.00;99.90;;;;;;4904955;29;20301;-69
2021/12/27 09:04:27;;;;;;;22.80;13.95;;;-1.90;99.90;;;;;;4915619;29;20215;-69
2021/12/27 09:06:54;;;;;;;21.40;11.75;;;-1.90;99.90;;;;;;4909692;29;20217;-68
2021/12/27 09:09:21;;;;;;;30.88;17.85;;;-1.90;99.90;;;;;;4915468;29;20270;-69
2021/12/27 09:11:48;;;;;;;19.23;12.45;;;-1.90;99.90;;;;;;4915218;29;20660;-68
2021/12/27 09:14:15;;;;;;;21.55;12.90;;;-1.80;99.90;;;;;;4915496;29;20241;-69
2021/12/27 09:16:42;;;;;;;20.80;13.65;;;-1.80;99.90;;;;;;4919109;29;20211;-69
2021/12/27 09:19:10;;;;;;;11.20;8.65;;;-1.80;99.90;;;;;;4926433;29;20261;-68
2021/12/27 09:21:37;;;;;;;20.50;9.98;;;-1.70;99.90;;;;;;4914381;29;20747;-68
2021/12/27 09:24:05;;;;;;;25.27;13.70;;;-1.70;99.90;;;;;;4914834;29;20210;-68
2021/12/27 09:26:31;;;;;;;34.50;15.70;;;-1.70;99.90;;;;;;4907839;29;20223;-69
2021/12/27 09:28:58;;;;;;;22.50;14.55;;;-1.70;99.90;;;;;;4901511;29;20213;-68
2021/12/27 09:31:25;;;;;;;27.20;15.57;;;-1.60;99.90;;;;;;4933090;29;20273;-67
2021/12/27 09:33:52;;;;;;;31.75;16.52;;;-1.50;99.90;;;;;;4929209;29;20380;-69
2021/12/27 09:36:20;;;;;;;27.92;15.25;;;-1.50;99.90;;;;;;4917352;29;20241;-69
2021/12/27 09:38:47;;;;;;;14.02;10.18;;;-1.40;99.90;;;;;;4909164;29;20581;-67
2021/12/27 09:41:15;;;;;;;28.85;16.92;;;-1.40;99.90;;;;;;4909840;29;20745;-68
2021/12/27 09:43:42;;;;;;;28.42;18.90;;;-1.50;99.90;;;;;;4911609;29;20611;-67
2021/12/27 09:46:10;;;;;;;16.70;10.70;;;-1.40;99.90;;;;;;4898294;29;20214;-67
2021/12/27 09:48:36;;;;;;;26.70;15.55;;;-1.40;99.90;;;;;;4917251;29;20206;-67
2021/12/27 09:51:03;;;;;;;15.13;9.38;;;-1.30;99.90;;;;;;4912971;29;20234;-67
2021/12/27 09:53:31;;;;;;;21.98;13.63;;;-1.30;99.90;;;;;;4905587;29;20223;-68
2021/12/27 09:55:58;;;;;;;10.82;7.30;;;-1.30;99.90;;;;;;4911482;29;20256;-68
2021/12/27 09:58:25;;;;;;;26.85;16.42;;;-1.30;99.90;;;;;;4923656;29;20210;-67
2021/12/27 10:00:52;;;;;;;15.88;9.48;;;-1.30;99.90;;;;;;4907977;29;20234;-67
2021/12/27 10:03:19;;;;;;;18.30;11.70;;;-1.30;99.90;;;;;;4913033;29;20201;-68
2021/12/27 10:05:45;;;;;;;20.90;11.30;;;-1.30;99.90;;;;;;4909978;29;20215;-66
2021/12/27 10:08:12;;;;;;;21.38;12.52;;;-1.30;99.90;;;;;;4911836;29;20214;-69
2021/12/27 10:10:41;;;;;;;23.50;14.60;;;-1.30;99.90;;;;;;4918290;29;20234;-66
2021/12/27 10:13:09;;;;;;;27.33;15.68;;;-1.20;99.90;;;;;;4912877;29;20230;-66
2021/12/27 10:15:38;;;;;;;16.75;9.90;;;-1.20;99.90;;;;;;4931974;29;20210;-67
2021/12/27 10:18:10;;;;;;;20.88;14.52;;;-1.20;99.90;;;;;;4918276;29;20207;-67
2021/12/27 10:20:36;;;;;;;24.73;14.15;;;-1.10;99.90;;;;;;4911742;29;20691;-71
2021/12/27 10:23:03;;;;;;;29.63;16.48;;;-1.10;99.90;;;;;;4908669;29;20255;-69
2021/12/27 10:25:31;;;;;;;27.77;12.77;;;-1.10;99.90;;;;;;4900493;29;20214;-67
2021/12/27 10:28:01;;;;;;;18.45;10.88;;;-1.00;99.90;;;;;;4925057;29;20206;-66
2021/12/27 10:30:30;;;;;;;31.95;15.23;;;-1.00;99.90;;;;;;4912736;29;20209;-66
2021/12/27 10:33:09;;;;;;;22.10;12.38;;;-1.00;99.90;;;;;;4913678;29;20289;-68
2021/12/27 10:35:37;;;;;;;18.33;11.63;;;-0.90;99.90;;;;;;4913746;29;20768;-66
2021/12/27 10:38:20;;;;;;;26.10;16.08;;;-0.90;99.90;;;;;;4902470;29;20219;-68
2021/12/27 10:40:52;;;;;;;29.30;14.70;;;-0.90;99.90;;;;;;4909544;29;20238;-69
2021/12/27 10:43:38;;;;;;;16.52;12.35;;;-0.90;99.90;;;;;;4902135;29;20215;-71
2021/12/27 10:46:06;;;;;;;15.02;8.73;;;-0.80;99.90;;;;;;4903085;29;20718;-68
2021/12/27 10:48:34;;;;;;;13.35;8.30;;;-0.80;99.90;;;;;;4912052;29;20210;-71
2021/12/27 10:51:01;;;;;;;30.38;15.70;;;-0.80;99.90;;;;;;4903606;29;20326;-70
2021/12/27 10:53:28;;;;;;;21.33;12.75;;;-0.80;99.90;;;;;;4905131;29;20227;-68
2021/12/27 10:55:56;;;;;;;12.70;7.18;;;-0.80;99.90;;;;;;4912596;29;20206;-68
2021/12/27 10:58:27;;;;;;;14.98;9.73;;;-0.70;99.90;;;;;;4915830;29;20290;-67
2021/12/27 11:00:58;;;;;;;29.50;15.10;;;-0.70;99.90;;;;;;4911602;29;20245;-68
2021/12/27 11:03:30;;;;;;;33.70;16.90;;;-0.70;99.90;;;;;;4906540;29;20267;-69
2021/12/27 11:05:58;;;;;;;23.58;15.38;;;-0.70;99.90;;;;;;4911666;29;20214;-67
2021/12/27 11:08:26;;;;;;;29.15;16.65;;;-0.60;99.90;;;;;;4925035;29;20218;-69
2021/12/27 11:10:53;;;;;;;25.52;12.45;;;-0.60;99.90;;;;;;4933437;29;20247;-68
2021/12/27 11:13:20;;;;;;;25.38;15.38;;;-0.60;99.90;;;;;;4928221;29;20226;-69
2021/12/27 11:15:48;;;;;;;25.10;14.68;;;-0.60;99.90;;;;;;4916896;29;20217;-69
2021/12/27 11:18:15;;;;;;;23.98;14.85;;;-0.60;99.90;;;;;;4922396;29;20587;-70
2021/12/27 11:20:45;;;;;;;29.83;17.13;;;-0.60;99.90;;;;;;4903234;29;20239;-67
2021/12/27 11:23:14;;;;;;;22.60;16.13;;;-0.60;99.90;;;;;;4930857;29;20516;-68
2021/12/27 11:25:42;;;;;;;15.23;9.05;;;-0.60;99.90;;;;;;4906063;29;20211;-68
2021/12/27 11:28:25;;;;;;;18.90;11.02;;;-0.60;99.90;;;;;;4935784;29;20584;-69
2021/12/27 11:30:53;;;;;;;22.65;13.65;;;-0.70;99.90;;;;;;4925629;29;20237;-70
2021/12/27 11:33:22;;;;;;;27.77;18.30;;;-0.70;99.90;;;;;;4915769;29;20314;-69
2021/12/27 11:36:10;;;;;;;21.08;13.43;;;-0.60;99.90;;;;;;4910450;29;20207;-68
2021/12/27 11:38:39;;;;;;;10.65;8.30;;;-0.60;99.90;;;;;;4912912;29;20317;-68
2021/12/27 11:41:26;;;;;;;19.00;10.38;;;-0.60;99.90;;;;;;4911762;29;20738;-69
2021/12/27 11:43:54;;;;;;;19.88;10.70;;;-0.50;99.90;;;;;;4913696;29;20202;-69
2021/12/27 11:46:24;;;;;;;32.33;15.75;;;-0.50;99.90;;;;;;4916269;29;20203;-70
2021/12/27 11:48:52;;;;;;;22.67;13.00;;;-0.40;99.90;;;;;;4916705;29;20345;-69
2021/12/27 11:51:31;;;;;;;26.40;13.57;;;-0.40;99.90;;;;;;4915527;29;20234;-70
2021/12/27 11:53:59;;;;;;;35.08;18.90;;;-0.40;99.90;;;;;;4917183;29;20264;-68
2021/12/27 11:56:42;;;;;;;28.00;18.17;;;-0.40;99.90;;;;;;4916155;29;20210;-69
2021/12/27 11:59:36;;;;;;;23.55;11.93;;;-0.30;99.90;;;;;;4911889;29;20214;-68
2021/12/27 12:02:24;;;;;;;20.70;12.30;;;-0.30;99.90;;;;;;4908789;29;20285;-67
2021/12/27 12:04:53;;;;;;;28.60;17.10;;;-0.30;99.90;;;;;;4922067;29;20209;-69
2021/12/27 12:07:48;;;;;;;22.23;12.65;;;-0.30;99.90;;;;;;4917483;29;20214;-69
2021/12/27 12:10:16;;;;;;;29.23;18.00;;;-0.20;99.90;;;;;;4915647;29;20440;-69
2021/12/27 12:12:43;;;;;;;20.10;12.02;;;-0.20;99.90;;;;;;4915913;29;20281;-70
2021/12/27 12:15:10;;;;;;;29.10;18.73;;;-0.20;99.90;;;;;;4917527;29;20254;-68
2021/12/27 12:17:43;;;;;;;23.80;12.85;;;-0.20;99.90;;;;;;4919901;29;20214;-69
2021/12/27 12:20:26;;;;;;;23.83;13.82;;;-0.20;99.90;;;;;;4913525;29;20286;-69
2021/12/27 12:23:00;;;;;;;13.35;8.27;;;-0.20;99.90;;;;;;4909826;29;20257;-70
2021/12/27 12:25:27;;;;;;;17.20;11.48;;;-0.20;99.90;;;;;;4915395;29;20668;-69
2021/12/27 12:27:57;;;;;;;32.30;18.20;;;-0.20;99.90;;;;;;4915806;29;20634;-70
2021/12/27 12:30:27;;;;;;;25.48;13.73;;;-0.20;99.90;;;;;;4914890;29;21870;-68
2021/12/27 12:33:01;;;;;;;30.42;17.63;;;-0.20;99.90;;;;;;4916206;29;20203;-68
2021/12/27 12:35:36;;;;;;;31.30;15.73;;;-0.10;99.90;;;;;;4925758;29;20235;-67
2021/12/27 12:38:15;;;;;;;19.90;14.60;;;-0.10;99.90;;;;;;4915866;29;20203;-70
2021/12/27 12:40:42;;;;;;;24.27;13.98;;;-0.10;99.90;;;;;;4914581;29;20237;-69
2021/12/27 12:43:09;;;;;;;20.45;12.80;;;-0.10;99.90;;;;;;4911164;29;20329;-69
2021/12/27 12:45:37;;;;;;;26.58;14.95;;;-0.10;99.90;;;;;;4915237;29;20292;-70
2021/12/27 12:48:05;;;;;;;27.63;15.45;;;-0.10;99.90;;;;;;4915340;29;20210;-69
2021/12/27 12:50:32;;;;;;;20.00;9.85;;;0.00;99.90;;;;;;4915152;29;20202;-68
2021/12/27 12:53:03;;;;;;;18.98;13.18;;;0.00;99.90;;;;;;4915924;29;20237;-67
2021/12/27 12:55:31;;;;;;;29.75;16.10;;;0.00;99.90;;;;;;4914649;29;20342;-68
2021/12/27 12:57:59;;;;;;;25.40;13.18;;;0.10;99.90;;;;;;4915476;29;20727;-67
2021/12/27 13:00:27;;;;;;;16.92;12.82;;;0.10;99.90;;;;;;4913127;29;20279;-69
2021/12/27 13:02:54;;;;;;;24.38;18.05;;;0.10;99.90;;;;;;4909799;29;20840;-68
2021/12/27 13:05:22;;;;;;;29.17;17.77;;;0.10;99.90;;;;;;4916200;29;20203;-69
2021/12/27 13:07:53;;;;;;;20.98;13.75;;;0.10;99.90;;;;;;4914938;29;20214;-68
2021/12/27 13:10:23;;;;;;;24.65;12.23;;;0.20;99.90;;;;;;4903306;29;20625;-69
2021/12/27 13:12:50;;;;;;;22.17;14.93;;;0.10;99.90;;;;;;4914574;29;20218;-69
2021/12/27 13:15:20;;;;;;;32.65;17.98;;;0.10;99.90;;;;;;4911805;29;20245;-69
2021/12/27 13:18:00;;;;;;;15.45;9.95;;;0.20;99.90;;;;;;4915050;29;20217;-70
2021/12/27 13:20:30;;;;;;;26.60;10.35;;;0.20;99.90;;;;;;4914169;29;20242;-69
2021/12/27 13:22:58;;;;;;;34.00;19.88;;;0.20;99.90;;;;;;4914820;29;20218;-68
2021/12/27 13:25:38;;;;;;;27.70;17.23;;;0.20;99.90;;;;;;4924576;29;20202;-69
2021/12/27 13:28:10;;;;;;;14.15;11.02;;;0.20;99.90;;;;;;4933023;29;20659;-70
2021/12/27 13:30:49;;;;;;;24.25;15.68;;;0.20;99.90;;;;;;4912834;29;20238;-68
2021/12/27 13:33:16;;;;;;;26.77;19.65;;;0.20;99.90;;;;;;4910155;29;20276;-68
2021/12/27 13:35:45;;;;;;;35.95;20.25;;;0.30;99.90;;;;;;4914520;29;20309;-67
2021/12/27 13:38:17;;;;;;;24.70;14.45;;;0.30;99.90;;;;;;4913823;29;20243;-67
2021/12/27 13:40:45;;;;;;;27.25;15.27;;;0.30;99.90;;;;;;4913486;29;20233;-67
2021/12/27 13:43:11;;;;;;;37.25;21.70;;;0.20;99.90;;;;;;4915036;29;20238;-69
2021/12/27 13:45:41;;;;;;;43.33;21.08;;;0.30;99.90;;;;;;4912499;29;20487;-71
2021/12/27 13:48:09;;;;;;;33.53;17.42;;;0.30;99.90;;;;;;4906496;29;20618;-71
2021/12/27 13:50:37;;;;;;;26.40;18.23;;;0.30;99.90;;;;;;4914067;29;20273;-69
2021/12/27 13:53:13;;;;;;;30.17;18.38;;;0.30;99.90;;;;;;4913942;29;20210;-69
2021/12/27 13:55:40;;;;;;;27.02;16.17;;;0.30;99.90;;;;;;4909320;29;20234;-68
2021/12/27 13:58:18;;;;;;;18.63;9.38;;;0.40;99.90;;;;;;4915192;29;20261;-69
2021/12/27 14:00:47;;;;;;;28.67;17.30;;;0.40;99.90;;;;;;4894780;29;20294;-69
2021/12/27 14:03:30;;;;;;;24.20;14.70;;;0.40;99.90;;;;;;4917695;29;20233;-67
2021/12/27 14:05:59;;;;;;;31.05;17.48;;;0.40;99.90;;;;;;4932774;29;20221;-68
2021/12/27 14:08:30;;;;;;;23.17;14.57;;;0.40;99.90;;;;;;4933532;29;20450;-68
2021/12/27 14:11:09;;;;;;;34.00;19.83;;;0.40;99.90;;;;;;4932359;29;20293;-69
2021/12/27 14:13:54;;;;;;;30.35;20.17;;;0.40;99.90;;;;;;4929869;29;20217;-68
2021/12/27 14:16:27;;;;;;;23.17;15.20;;;0.50;99.90;;;;;;4914029;29;20244;-69
2021/12/27 14:19:10;;;;;;;25.55;13.98;;;0.50;99.90;;;;;;4914334;29;20214;-69
2021/12/27 14:22:06;;;;;;;30.85;18.27;;;0.50;99.90;;;;;;4902186;29;20313;-67
2021/12/27 14:24:38;;;;;;;29.98;13.20;;;0.50;99.90;;;;;;4914436;29;20210;-68
2021/12/27 14:27:07;;;;;;;20.90;12.55;;;0.50;99.90;;;;;;4913998;29;20273;-68
2021/12/27 14:29:34;;;;;;;26.20;14.30;;;0.50;99.90;;;;;;4914179;29;20214;-68
2021/12/27 14:32:03;;;;;;;17.52;11.70;;;0.60;99.90;;;;;;4914226;29;20234;-67
2021/12/27 14:34:42;;;;;;;15.52;9.82;;;0.60;99.90;;;;;;4930852;29;20222;-70
2021/12/27 14:37:11;;;;;;;31.90;18.40;;;0.60;99.90;;;;;;4921462;29;20301;-68
2021/12/27 14:39:39;;;;;;;11.43;7.80;;;0.60;99.90;;;;;;4913076;29;20306;-68
2021/12/27 14:42:08;;;;;;;26.20;15.02;;;0.60;99.90;;;;;;4911842;29;20238;-68
2021/12/27 14:44:43;;;;;;;15.82;10.63;;;0.60;99.90;;;;;;4913921;29;20210;-69
2021/12/27 14:47:10;;;;;;;29.13;16.00;;;0.60;99.90;;;;;;4914122;29;20301;-69
2021/12/27 14:49:37;;;;;;;20.13;10.77;;;0.60;99.90;;;;;;4913330;29;20218;-68
2021/12/27 14:52:05;;;;;;;30.83;17.27;;;0.60;99.90;;;;;;4913366;29;20317;-68
2021/12/27 14:54:32;;;;;;;22.98;15.30;;;0.60;99.90;;;;;;4913181;29;20243;-69
2021/12/27 14:57:00;;;;;;;20.58;11.80;;;0.60;99.90;;;;;;4913460;29;20664;-69
2021/12/27 14:59:26;;;;;;;30.20;17.73;;;0.70;99.90;;;;;;4913043;29;20214;-68
2021/12/27 15:01:53;;;;;;;24.85;15.45;;;0.70;99.90;;;;;;4907200;29;20328;-66
2021/12/27 15:04:20;;;;;;;31.52;17.58;;;0.70;99.90;;;;;;4908865;29;20262;-68
2021/12/27 15:06:47;;;;;;;6.70;6.30;;;0.70;99.90;;;;;;4913501;29;20207;-68
2021/12/27 15:09:14;;;;;;;29.42;18.25;;;0.70;99.90;;;;;;4913320;29;20273;-68
2021/12/27 15:11:41;;;;;;;27.15;19.20;;;0.70;99.90;;;;;;4912955;29;20326;-70
2021/12/27 15:14:09;;;;;;;32.20;19.35;;;0.70;99.90;;;;;;4913395;29;20218;-68
2021/12/27 15:16:35;;;;;;;15.88;10.23;;;0.70;99.90;;;;;;4913113;29;20202;-67
2021/12/27 15:19:02;;;;;;;26.52;16.58;;;0.70;99.90;;;;;;4913667;29;20258;-68
2021/12/27 15:21:29;;;;;;;20.15;13.20;;;0.70;99.90;;;;;;4912212;29;20222;-69
2021/12/27 15:23:55;;;;;;;33.95;18.27;;;0.70;99.90;;;;;;4913572;29;20443;-68
2021/12/27 15:26:22;;;;;;;31.60;18.88;;;0.70;99.90;;;;;;4910830;29;20203;-68
2021/12/27 15:28:49;;;;;;;29.13;15.88;;;0.80;99.90;;;;;;4910682;29;20274;-68
2021/12/27 15:31:17;;;;;;;32.55;16.23;;;0.70;99.90;;;;;;4912247;29;20709;-68
2021/12/27 15:33:44;;;;;;;30.85;17.58;;;0.80;99.90;;;;;;4905021;29;20243;-68
2021/12/27 15:36:11;;;;;;;28.73;17.23;;;0.80;99.90;;;;;;4913276;29;20749;-69
2021/12/27 15:38:38;;;;;;;18.40;10.23;;;0.80;99.90;;;;;;4913878;29;20278;-70
2021/12/27 15:41:05;;;;;;;35.53;18.63;;;0.80;99.90;;;;;;4913506;29;20326;-67
2021/12/27 15:43:31;;;;;;;35.92;19.90;;;0.80;99.90;;;;;;4916583;29;20216;-67
2021/12/27 15:45:59;;;;;;;25.92;18.02;;;0.80;99.90;;;;;;4916453;29;20214;-67
2021/12/27 15:48:28;;;;;;;32.75;18.33;;;0.80;99.90;;;;;;4916568;29;20210;-68
2021/12/27 15:50:56;;;;;;;33.28;19.98;;;0.80;99.90;;;;;;4915016;29;20234;-67
2021/12/27 15:53:23;;;;;;;25.77;15.82;;;0.80;99.90;;;;;;4916612;29;20210;-68
2021/12/27 15:55:50;;;;;;;31.70;18.33;;;0.90;99.90;;;;;;4919439;29;20238;-68
2021/12/27 15:58:17;;;;;;;17.15;12.38;;;0.90;99.90;;;;;;4915794;29;20735;-69
2021/12/27 16:00:44;;;;;;;29.67;17.80;;;0.90;99.90;;;;;;4903463;29;20246;-69
2021/12/27 16:03:10;;;;;;;22.35;14.07;;;0.90;99.90;;;;;;4914532;29;20206;-70
2021/12/27 16:05:39;;;;;;;22.25;12.50;;;0.80;99.90;;;;;;4914430;29;20269;-69
2021/12/27 16:08:06;;;;;;;32.97;16.77;;;0.90;99.90;;;;;;4925805;29;20269;-69
2021/12/27 16:10:32;;;;;;;30.85;18.98;;;0.90;99.90;;;;;;4916545;29;20215;-69
2021/12/27 16:13:00;;;;;;;24.38;12.48;;;0.80;99.90;;;;;;4923188;29;20206;-69
2021/12/27 16:15:27;;;;;;;29.00;18.70;;;0.90;99.90;;;;;;4935050;29;20232;-68
2021/12/27 16:17:54;;;;;;;27.83;17.33;;;0.90;99.90;;;;;;4916624;29;20211;-69
2021/12/27 16:20:22;;;;;;;28.73;16.10;;;0.90;99.90;;;;;;4915194;29;20246;-69
2021/12/27 16:22:50;;;;;;;16.35;10.60;;;0.90;99.90;;;;;;4916043;29;20222;-69
2021/12/27 16:25:18;;;;;;;22.05;12.38;;;0.90;99.90;;;;;;4913274;29;20309;-70
2021/12/27 16:27:45;;;;;;;20.13;12.88;;;0.90;99.90;;;;;;4919930;29;20226;-69
2021/12/27 16:30:13;;;;;;;22.67;12.93;;;1.00;99.90;;;;;;4913129;29;20301;-68
2021/12/27 16:32:39;;;;;;;27.15;16.23;;;1.00;99.90;;;;;;4907858;29;20286;-69
2021/12/27 16:35:07;;;;;;;25.65;14.90;;;1.00;99.90;;;;;;4916019;29;20238;-69
2021/12/27 16:37:34;;;;;;;26.80;17.55;;;1.00;99.90;;;;;;4909893;29;20216;-67
2021/12/27 16:40:12;;;;;;;30.10;18.90;;;1.00;99.90;;;;;;4899718;29;20641;-69
2021/12/27 16:42:38;;;;;;;27.77;16.02;;;1.00;99.90;;;;;;4934490;29;20259;-69
2021/12/27 16:45:06;;;;;;;32.50;18.65;;;1.00;99.90;;;;;;4914287;29;20199;-70
2021/12/27 16:47:33;;;;;;;28.55;18.88;;;1.10;99.90;;;;;;4914018;29;20584;-70
2021/12/27 16:50:00;;;;;;;18.27;12.50;;;1.10;99.90;;;;;;4905585;29;20211;-69
2021/12/27 16:52:26;;;;;;;27.20;18.48;;;1.10;99.90;;;;;;4914652;29;20238;-69
2021/12/27 16:54:53;;;;;;;21.80;14.32;;;1.10;99.90;;;;;;4914988;29;20237;-69
2021/12/27 16:57:21;;;;;;;31.75;13.35;;;1.10;99.90;;;;;;4901023;29;20271;-70
2021/12/27 16:59:48;;;;;;;31.23;17.25;;;1.10;99.90;;;;;;4910371;29;20593;-70
2021/12/27 17:02:15;;;;;;;26.17;17.90;;;1.10;99.90;;;;;;4913051;29;20285;-69
2021/12/27 17:04:42;;;;;;;22.13;14.95;;;1.10;99.90;;;;;;4914996;29;20220;-69
2021/12/27 17:07:08;;;;;;;21.70;14.88;;;1.20;99.90;;;;;;4918273;29;20202;-69
2021/12/27 17:09:35;;;;;;;24.30;15.45;;;1.20;99.90;;;;;;4924624;29;20211;-70
2021/12/27 17:12:02;;;;;;;27.73;16.90;;;1.20;99.90;;;;;;4917682;29;20218;-70
2021/12/27 17:14:30;;;;;;;31.35;15.32;;;1.20;99.90;;;;;;4916155;29;20226;-69
2021/12/27 17:16:57;;;;;;;28.98;17.58;;;1.20;99.90;;;;;;4916668;29;20700;-68
2021/12/27 17:19:23;;;;;;;27.35;16.38;;;1.20;99.90;;;;;;4921017;29;20246;-68
2021/12/27 17:21:50;;;;;;;25.25;16.30;;;1.20;99.90;;;;;;4913521;29;20227;-68
2021/12/27 17:24:16;;;;;;;22.80;15.40;;;1.30;99.90;;;;;;4900299;29;20203;-67
2021/12/27 17:26:44;;;;;;;31.50;17.90;;;1.30;99.90;;;;;;4910415;29;20541;-68
2021/12/27 17:29:13;;;;;;;27.95;17.27;;;1.30;99.90;;;;;;4896151;29;20211;-67
2021/12/27 17:31:41;;;;;;;31.65;17.25;;;1.30;99.90;;;;;;4911344;29;21297;-68
2021/12/27 17:34:08;;;;;;;21.00;12.85;;;1.30;99.90;;;;;;4911186;29;20222;-68
2021/12/27 17:36:37;;;;;;;23.38;16.05;;;1.30;99.90;;;;;;4913870;29;20274;-67
2021/12/27 17:39:04;;;;;;;30.23;18.42;;;1.30;99.90;;;;;;4915370;29;20257;-69
2021/12/27 17:41:31;;;;;;;26.63;17.42;;;1.30;99.90;;;;;;4897990;29;20234;-69